AirNav   TITAN Aviation Fuels
 
 1452 users online  

93CO Antelope Airpark
Lake George, Colorado, USA

GOING TO LAKE GEORGE?


FAA INFORMATION EFFECTIVE 02 DECEMBER 2021

Location

FAA Identifier: 93CO
Lat/Long: 39-01-29.0899N 105-36-51.7666W
39-01.484832N 105-36.862777W
39.0247472,-105.6143796
(estimated)
Elevation: 8700 ft. / 2652 m
From city: 15 miles WNW of LAKE GEORGE, CO
Time zone: UTC -7 (UTC -6 during Daylight Saving Time)
Zip code: 80827

Airport Operations

Airport use: Private use. Permission required prior to landing
Activation date: 08/2007
Control tower: no
ARTCC: DENVER CENTER
FSS: DENVER FLIGHT SERVICE STATION
Attendance: UNATNDD
Wind indicator: yes
Segmented circle: no

Airport Services

Runway Information

Runway 9/27

Dimensions: 2600 x 50 ft. / 792 x 15 m
Surface: turf, in fair condition
RUNWAY 9  RUNWAY 27
Traffic pattern: leftleft

Airport Ownership and Management from official FAA records

Ownership: Privately-owned
Owner: ANTHONY F BOCCIO
PO BOX 511
FAIRPLAY, CO 80440
Phone 719-836-2183
Manager: ANTHONY F BOCCIO
PO BOX 511
FAIRPLAY, CO 80440
Phone 719-836-2183

Airport Operational Statistics

Aircraft based on the field: 4
Single engine airplanes: 2
Gliders airplanes: 1
Ultralights: 1
    

Additional Remarks

RY ROUGH IN SPOTS.
FOR CD CTC DENVER ARTCC AT 303-651-4257.

Instrument Procedures

There are no published instrument procedures at 93CO.

Some nearby airports with instrument procedures:

KAEJ - Central Colorado Regional Airport (27 nm SW)
KLXV - Lake County Airport (35 nm W)
KANK - Salida Airport/Harriett Alexander Field (36 nm SW)
1V6 - Fremont County Airport (43 nm SE)
KCOS - City of Colorado Springs Municipal Airport (45 nm E)
 
Loc | Ops | Rwys | IFR | FBO | Links
Com | Nav | Svcs | Stats | Notes

AirBoss

 
Aerial photo
No photo
 
Sectional chart

 
Airport distance calculator
Flying to Antelope Airpark? Find the distance to fly.

From to 93CO

Sunrise and sunset
Times for 03-Dec-2021
 Local
(UTC-7)
 Zulu
(UTC)
Morning civil twilight06:3613:36
Sunrise07:0514:05
Sunset16:3923:39
Evening civil twilight17:0900:09

Current date and time
Zulu (UTC)  03-Dec-2021 18:56:02
Local (UTC-7)  03-Dec-2021 11:56:02
 
METAR
K4BM 
5nm E 
031835Z AUTO 16008KT 10SM CLR 06/M10 A3039 RMK AO2
TAF
KAFF 
37nm E 
031349Z 0313/0418 36012G18KT 9999 SCT250 520003 QNH3017INS WND 330V050 TEMPO 0314/0316 01015G25KT BECMG 0317/0318 VRB06KT 9999 BKN250 QNH3015INS BECMG 0319/0320 15011G19KT 9999 SCT250 QNH3013INS BECMG 0400/0401 VRB06KT 9999 FEW025 BKN040 QNH3017INS BECMG 0406/0407 15010KT 9999 BKN020 QNH3012INS BECMG 0412/0413 36009KT 9999 SCT020 520305 QNH3011INS TX15/0321Z TNM04/0410Z
KCOS 
44nm E 
031720Z 0318/0418 10005KT P6SM SKC FM040000 13006KT P6SM FEW220 FM040900 08006KT P6SM FEW200
KFCS 
45nm SE 
031312Z 0313/0419 VRB06KT 9999 SKC QNH3006INS TX16/0321Z TNM04/0413Z
NOTAMs
Click for the latest NOTAMs
NOTAMs are issued by the DoD/FAA and will open in a separate window not controlled by AirNav.

 

 
 

Would you like to see your business listed on this page?

 If your business provides an interesting product or service to pilots, flight crews, aircraft, or users of the Antelope Airpark, you should consider listing it here.  To start the listing process, click on the button below
 
Add a business
 

Other Pages about Antelope Airpark

Update a link
 
Copyright © AirNav, LLC. All rights reserved. Privacy Policy  Contact